Time;durP1;ratioP1;P1;durP2;ratioP2;P2;SDS_P1;SDS_P2;PMS_P1;PMS_P2;Temp;Humidity;BMP_temperature;BMP_pressure;BME280_temperature;BME280_humidity;BME280_pressure;Samples;Min_cycle;Max_cycle;Signal;HPM_P1;HPM_P2
2021/09/19 00:01:13;;;;;;;8.70;8.03;;;12.60;99.90;;;;;;4978115;28;20430;-64
2021/09/19 00:03:39;;;;;;;1.07;0.97;;;12.60;99.90;;;;;;4978071;28;20442;-66
2021/09/19 00:06:05;;;;;;;0.80;0.80;;;12.50;99.90;;;;;;4978094;28;20644;-66
2021/09/19 00:08:33;;;;;;;0.30;0.20;;;12.50;99.90;;;;;;4977765;28;20187;-66
2021/09/19 00:10:58;;;;;;;1.38;0.68;;;12.40;99.90;;;;;;4977725;28;20206;-66
2021/09/19 00:13:24;;;;;;;0.30;0.20;;;12.40;99.90;;;;;;4978012;28;20195;-66
2021/09/19 00:15:50;;;;;;;1.03;0.50;;;12.50;99.90;;;;;;4978215;28;20191;-64
2021/09/19 00:18:17;;;;;;;0.60;0.60;;;12.40;99.90;;;;;;4977558;28;20604;-65
2021/09/19 00:20:43;;;;;;;0.30;0.17;;;12.30;99.90;;;;;;4977636;28;20187;-65
2021/09/19 00:23:09;;;;;;;0.30;0.20;;;12.30;99.90;;;;;;4977591;28;20191;-66
2021/09/19 00:25:35;;;;;;;1.40;1.30;;;12.30;99.90;;;;;;4977507;28;20180;-66
2021/09/19 00:28:01;;;;;;;0.30;0.20;;;12.30;99.90;;;;;;4977634;28;20246;-66
2021/09/19 00:30:26;;;;;;;1.00;0.40;;;12.30;99.90;;;;;;4976172;28;20590;-66
2021/09/19 00:32:52;;;;;;;0.30;0.20;;;12.20;99.90;;;;;;4977470;28;20438;-66
2021/09/19 00:35:18;;;;;;;0.30;0.20;;;12.30;99.90;;;;;;4977290;28;20186;-66
2021/09/19 00:37:43;;;;;;;0.30;0.20;;;12.20;99.90;;;;;;4977346;28;20506;-68
2021/09/19 00:40:10;;;;;;;0.63;0.40;;;12.30;99.90;;;;;;4976388;28;20183;-66
2021/09/19 00:42:36;;;;;;;0.63;0.63;;;12.40;99.90;;;;;;4977347;28;20523;-66
2021/09/19 00:45:06;;;;;;;0.45;0.30;;;12.50;99.90;;;;;;4977446;28;20219;-65
2021/09/19 00:47:32;;;;;;;0.40;0.30;;;12.50;99.90;;;;;;4977134;28;20183;-65
2021/09/19 00:49:58;;;;;;;0.30;0.20;;;12.40;99.90;;;;;;4976919;28;20549;-64
2021/09/19 00:52:24;;;;;;;0.30;0.20;;;12.30;99.90;;;;;;4977088;28;20592;-64
2021/09/19 00:54:50;;;;;;;0.40;0.20;;;12.30;99.90;;;;;;4977070;28;20199;-64
2021/09/19 00:57:17;;;;;;;0.30;0.20;;;12.40;99.90;;;;;;4977027;28;20446;-65
2021/09/19 00:59:47;;;;;;;0.30;0.20;;;12.30;99.90;;;;;;4976910;28;20186;-65
2021/09/19 01:02:13;;;;;;;0.30;0.20;;;12.40;99.90;;;;;;4977131;28;20234;-65
2021/09/19 01:04:39;;;;;;;0.30;0.20;;;12.30;99.90;;;;;;4976012;28;20616;-64
2021/09/19 01:07:05;;;;;;;0.30;0.20;;;12.50;99.90;;;;;;4976822;28;20226;-66
2021/09/19 01:09:31;;;;;;;0.30;0.20;;;12.50;99.90;;;;;;4976708;28;20926;-66
2021/09/19 01:11:58;;;;;;;0.30;0.20;;;12.40;99.90;;;;;;4975736;28;20529;-66
2021/09/19 01:14:27;;;;;;;0.80;0.80;;;12.40;99.90;;;;;;4976812;28;20629;-66
2021/09/19 01:16:53;;;;;;;0.93;0.50;;;12.40;99.90;;;;;;4976872;28;20183;-67
2021/09/19 01:19:22;;;;;;;0.30;0.20;;;12.40;99.90;;;;;;4976645;28;20503;-67
2021/09/19 01:21:51;;;;;;;0.30;0.20;;;12.50;99.90;;;;;;4976620;28;20442;-66
2021/09/19 01:24:17;;;;;;;0.30;0.20;;;12.40;99.90;;;;;;4976659;28;20315;-65
2021/09/19 01:26:42;;;;;;;0.30;0.20;;;12.40;99.90;;;;;;4976690;28;20231;-64
2021/09/19 01:29:08;;;;;;;0.77;0.77;;;12.50;99.90;;;;;;4976516;28;20175;-66
2021/09/19 01:31:34;;;;;;;0.30;0.20;;;12.50;99.90;;;;;;4976563;28;20208;-65
2021/09/19 01:34:00;;;;;;;0.30;0.20;;;12.50;99.90;;;;;;4976343;28;20437;-65
2021/09/19 01:36:25;;;;;;;0.30;0.20;;;12.60;99.90;;;;;;4976232;28;20270;-64
2021/09/19 01:38:51;;;;;;;0.30;0.20;;;12.70;99.90;;;;;;4975351;28;20234;-64
2021/09/19 01:41:21;;;;;;;0.30;0.20;;;12.50;99.90;;;;;;4976139;28;20549;-67
2021/09/19 01:43:47;;;;;;;0.63;0.63;;;12.60;99.90;;;;;;4976253;28;20625;-66
2021/09/19 01:46:14;;;;;;;0.40;0.30;;;12.60;99.90;;;;;;4976109;28;20184;-65
2021/09/19 01:48:40;;;;;;;0.30;0.20;;;12.60;99.90;;;;;;4975806;28;20290;-65
2021/09/19 01:51:07;;;;;;;0.30;0.20;;;12.60;99.90;;;;;;4976121;28;20215;-64
2021/09/19 01:53:33;;;;;;;0.30;0.20;;;12.70;99.90;;;;;;4976161;28;20225;-64
2021/09/19 01:55:59;;;;;;;0.30;0.20;;;12.70;99.90;;;;;;4976030;28;20184;-64
2021/09/19 01:58:25;;;;;;;0.30;0.20;;;12.60;99.90;;;;;;4975911;28;20230;-64
2021/09/19 02:01:02;;;;;;;0.30;0.20;;;12.40;99.90;;;;;;4975939;28;20272;-64
2021/09/19 02:03:27;;;;;;;3.40;1.83;;;12.40;99.90;;;;;;4975827;28;20195;-65
2021/09/19 02:05:54;;;;;;;0.30;0.20;;;12.50;99.90;;;;;;4975959;28;20179;-65
2021/09/19 02:08:19;;;;;;;0.30;0.20;;;12.40;99.90;;;;;;4976162;28;20191;-65
2021/09/19 02:10:45;;;;;;;0.30;0.20;;;12.50;99.90;;;;;;4976918;28;20577;-65
2021/09/19 02:13:10;;;;;;;0.30;0.20;;;12.50;99.90;;;;;;4976352;28;20514;-66
2021/09/19 02:15:36;;;;;;;0.30;0.20;;;12.60;99.90;;;;;;4975970;28;20577;-65
2021/09/19 02:18:02;;;;;;;0.30;0.20;;;12.70;99.90;;;;;;4974464;28;20271;-65
2021/09/19 02:20:27;;;;;;;0.30;0.20;;;12.70;99.90;;;;;;4975573;28;20541;-65
2021/09/19 02:22:53;;;;;;;0.30;0.20;;;12.80;99.90;;;;;;4975603;28;20214;-66
2021/09/19 02:25:19;;;;;;;0.30;0.20;;;12.80;99.90;;;;;;4974627;28;20202;-66
2021/09/19 02:27:44;;;;;;;0.30;0.20;;;13.00;99.90;;;;;;4975383;28;20179;-65
2021/09/19 02:30:13;;;;;;;0.30;0.20;;;13.10;99.90;;;;;;4975295;28;20632;-65
2021/09/19 02:32:39;;;;;;;0.30;0.20;;;13.10;99.90;;;;;;4975202;28;20370;-65
2021/09/19 02:35:06;;;;;;;0.73;0.73;;;13.20;99.90;;;;;;4975367;28;20182;-65
2021/09/19 02:37:32;;;;;;;0.30;0.20;;;13.30;99.90;;;;;;4975202;28;20615;-65
2021/09/19 02:39:58;;;;;;;0.30;0.20;;;13.50;99.90;;;;;;4975391;28;20195;-65
2021/09/19 02:42:23;;;;;;;0.30;0.20;;;13.50;99.90;;;;;;4975287;28;20191;-65
2021/09/19 02:44:49;;;;;;;0.30;0.20;;;13.50;99.90;;;;;;4975214;28;20187;-64
2021/09/19 02:47:15;;;;;;;0.30;0.20;;;13.40;99.90;;;;;;4975086;28;20197;-64
2021/09/19 02:49:40;;;;;;;0.40;0.30;;;13.30;99.90;;;;;;4974841;28;20294;-63
2021/09/19 02:52:06;;;;;;;0.30;0.20;;;13.20;99.90;;;;;;4975048;28;20314;-63
2021/09/19 02:54:31;;;;;;;0.30;0.20;;;13.30;99.90;;;;;;4973572;28;20191;-63
2021/09/19 02:56:57;;;;;;;0.30;0.20;;;13.30;99.90;;;;;;4974169;28;20278;-63
2021/09/19 02:59:22;;;;;;;0.30;0.13;;;13.40;99.90;;;;;;4975010;28;20242;-63
2021/09/19 03:01:48;;;;;;;0.30;0.20;;;13.40;99.90;;;;;;4974840;28;20301;-63
2021/09/19 03:04:14;;;;;;;0.30;0.20;;;13.40;99.90;;;;;;4975188;28;20187;-66
2021/09/19 03:06:39;;;;;;;0.30;0.20;;;13.40;99.90;;;;;;4974924;28;20183;-65
2021/09/19 03:09:05;;;;;;;0.30;0.17;;;13.60;99.90;;;;;;4974882;28;20681;-65
2021/09/19 03:11:31;;;;;;;0.30;0.17;;;13.70;99.90;;;;;;4974753;28;20210;-64
2021/09/19 03:13:56;;;;;;;0.30;0.20;;;13.70;99.90;;;;;;4974806;28;20226;-64
2021/09/19 03:16:22;;;;;;;0.30;0.20;;;13.60;90.60;;;;;;4974755;28;20167;-64
2021/09/19 03:18:48;;;;;;;0.30;0.20;;;13.50;94.30;;;;;;4974642;28;20191;-64
2021/09/19 03:21:13;;;;;;;0.30;0.13;;;13.40;99.90;;;;;;4974962;28;20202;-64
2021/09/19 03:23:39;;;;;;;0.30;0.10;;;13.60;99.90;;;;;;4974861;28;20427;-63
2021/09/19 03:26:05;;;;;;;0.30;0.20;;;13.70;92.30;;;;;;4974894;28;20516;-63
2021/09/19 03:28:31;;;;;;;0.30;0.20;;;13.80;88.20;;;;;;4974490;28;20300;-64
2021/09/19 03:30:56;;;;;;;0.30;0.17;;;13.80;51.40;;;;;;4974554;28;20633;-65
2021/09/19 03:33:22;;;;;;;0.30;0.20;;;14.00;51.40;;;;;;4974730;28;20184;-65
2021/09/19 03:35:47;;;;;;;0.30;0.20;;;13.90;3.20;;;;;;4974148;28;20293;-64
2021/09/19 03:38:13;;;;;;;2.10;2.00;;;13.80;1.00;;;;;;4974433;28;20183;-64
2021/09/19 03:40:38;;;;;;;0.30;0.20;;;13.90;26.60;;;;;;4974603;28;20191;-64
2021/09/19 03:43:04;;;;;;;0.30;0.20;;;14.00;21.00;;;;;;4974603;28;20269;-64
2021/09/19 03:45:30;;;;;;;0.70;0.70;;;14.00;1.00;;;;;;4974629;28;20192;-64
2021/09/19 03:48:01;;;;;;;0.30;0.20;;;13.60;1.00;;;;;;4974089;28;20192;-64
2021/09/19 03:50:26;;;;;;;0.40;0.32;;;13.60;24.30;;;;;;4974075;28;20462;-64
2021/09/19 03:52:52;;;;;;;0.30;0.20;;;13.60;61.20;;;;;;4974926;28;20242;-64
2021/09/19 03:55:17;;;;;;;0.30;0.20;;;13.60;19.60;;;;;;4974845;28;20180;-65
2021/09/19 03:57:43;;;;;;;0.40;0.30;;;13.60;1.00;;;;;;4974819;28;20183;-65
2021/09/19 04:00:09;;;;;;;0.30;0.20;;;13.60;31.60;;;;;;4974712;28;20266;-66
2021/09/19 04:02:34;;;;;;;0.30;0.17;;;13.60;19.00;;;;;;4974007;28;20272;-66
2021/09/19 04:05:00;;;;;;;0.30;0.20;;;13.80;17.40;;;;;;4976277;28;20426;-67
2021/09/19 04:07:25;;;;;;;0.30;0.10;;;13.90;1.00;;;;;;4978447;28;20184;-66
2021/09/19 04:09:51;;;;;;;0.30;0.17;;;13.90;1.00;;;;;;4978181;28;20180;-66
2021/09/19 04:12:17;;;;;;;0.30;0.20;;;13.80;1.00;;;;;;4977967;28;20290;-67
2021/09/19 04:14:43;;;;;;;0.30;0.20;;;13.70;1.00;;;;;;4978295;28;20176;-67
2021/09/19 04:17:08;;;;;;;0.30;0.10;;;13.70;1.00;;;;;;4978047;28;20187;-67
2021/09/19 04:19:34;;;;;;;0.30;0.20;;;13.80;1.00;;;;;;4978127;28;20187;-66
2021/09/19 04:22:00;;;;;;;0.30;0.20;;;13.50;1.00;;;;;;4978327;28;20527;-67
2021/09/19 04:24:26;;;;;;;0.30;0.20;;;13.60;34.50;;;;;;4978318;28;20188;-66
2021/09/19 04:26:51;;;;;;;0.30;0.20;;;13.60;12.70;;;;;;4976990;28;20238;-66
2021/09/19 04:29:17;;;;;;;0.30;0.20;;;13.30;45.90;;;;;;4977905;28;20208;-66
2021/09/19 04:31:43;;;;;;;0.30;0.20;;;13.30;99.90;;;;;;4977847;28;20203;-66
2021/09/19 04:34:08;;;;;;;0.55;0.55;;;13.50;99.90;;;;;;4977893;28;20183;-66
2021/09/19 04:36:34;;;;;;;0.30;0.20;;;13.60;89.40;;;;;;4976641;28;20183;-66
2021/09/19 04:39:00;;;;;;;0.30;0.20;;;13.60;85.60;;;;;;4977887;28;20184;-66
2021/09/19 04:41:25;;;;;;;0.30;0.20;;;13.70;99.20;;;;;;4977784;28;20271;-66
2021/09/19 04:43:51;;;;;;;0.30;0.20;;;13.70;72.80;;;;;;4977826;28;20180;-64
2021/09/19 04:46:16;;;;;;;0.30;0.20;;;13.70;52.20;;;;;;4977454;28;20184;-65
2021/09/19 04:48:42;;;;;;;0.30;0.20;;;13.90;46.40;;;;;;4977398;28;20517;-66
2021/09/19 04:51:07;;;;;;;0.30;0.10;;;13.70;14.60;;;;;;4977474;28;20203;-65
2021/09/19 04:53:33;;;;;;;0.30;0.20;;;13.70;22.60;;;;;;4977612;28;20509;-65
2021/09/19 04:55:59;;;;;;;0.30;0.20;;;13.70;6.00;;;;;;4977605;28;20183;-65
2021/09/19 04:58:24;;;;;;;0.30;0.30;;;13.50;11.80;;;;;;4977326;28;20195;-66
2021/09/19 05:00:50;;;;;;;0.30;0.20;;;13.50;44.70;;;;;;4977117;28;20217;-66
2021/09/19 05:03:16;;;;;;;0.30;0.20;;;13.60;92.10;;;;;;4977576;28;20184;-66
2021/09/19 05:05:41;;;;;;;0.30;0.20;;;13.70;91.40;;;;;;4977622;28;20790;-67
2021/09/19 05:08:07;;;;;;;0.57;0.57;;;13.80;55.80;;;;;;4976911;28;20183;-67
2021/09/19 05:10:32;;;;;;;0.30;0.20;;;13.90;15.70;;;;;;4977103;28;20518;-67
2021/09/19 05:12:58;;;;;;;0.30;0.20;;;14.00;1.00;;;;;;4976168;28;20183;-67
2021/09/19 05:15:23;;;;;;;0.30;0.20;;;14.00;1.00;;;;;;4977107;28;20195;-67
2021/09/19 05:17:49;;;;;;;0.63;0.30;;;14.00;1.00;;;;;;4976694;28;20192;-67
2021/09/19 05:20:15;;;;;;;2.20;0.93;;;13.60;1.00;;;;;;4977056;28;20515;-67
2021/09/19 05:22:40;;;;;;;0.30;0.20;;;13.50;27.90;;;;;;4975931;28;20234;-67
2021/09/19 05:25:06;;;;;;;0.50;0.50;;;13.40;33.10;;;;;;4977016;28;20222;-67
2021/09/19 05:27:32;;;;;;;0.30;0.20;;;13.60;93.40;;;;;;4976839;28;20188;-67
2021/09/19 05:29:57;;;;;;;0.30;0.20;;;13.40;34.20;;;;;;4976272;28;20238;-68
2021/09/19 05:32:23;;;;;;;0.40;0.20;;;13.60;93.80;;;;;;4976313;28;20219;-67
2021/09/19 05:34:48;;;;;;;0.30;0.20;;;13.70;63.00;;;;;;4976341;28;20525;-67
2021/09/19 05:37:14;;;;;;;2.30;2.20;;;13.60;15.80;;;;;;4976139;28;20219;-67
2021/09/19 05:39:39;;;;;;;0.40;0.30;;;13.60;1.00;;;;;;4975713;28;20286;-67
2021/09/19 05:42:05;;;;;;;0.50;0.47;;;13.80;15.80;;;;;;4976190;28;20561;-67
2021/09/19 05:44:31;;;;;;;0.30;0.10;;;13.50;1.00;;;;;;4976047;28;20596;-67
2021/09/19 05:46:57;;;;;;;0.30;0.17;;;13.60;5.60;;;;;;4976028;28;20266;-65
2021/09/19 05:49:22;;;;;;;0.50;0.50;;;13.90;1.00;;;;;;4974827;28;20202;-64
2021/09/19 05:51:48;;;;;;;0.30;0.20;;;14.10;1.00;;;;;;4976037;28;20220;-65
2021/09/19 05:54:14;;;;;;;0.30;0.20;;;14.00;1.00;;;;;;4975968;28;20187;-63
2021/09/19 05:56:39;;;;;;;0.30;0.10;;;14.20;1.00;;;;;;4975824;28;20245;-64
2021/09/19 05:59:05;;;;;;;0.40;0.17;;;14.30;1.00;;;;;;4975805;28;20191;-65
2021/09/19 06:01:30;;;;;;;0.30;0.20;;;14.30;1.00;;;;;;4975706;28;20656;-65
2021/09/19 06:03:56;;;;;;;0.30;0.20;;;14.30;1.00;;;;;;4975674;28;20532;-64
2021/09/19 06:06:21;;;;;;;0.30;0.20;;;14.20;1.00;;;;;;4975561;28;20279;-64
2021/09/19 06:08:47;;;;;;;0.53;0.53;;;14.30;1.00;;;;;;4975457;28;20198;-64
2021/09/19 06:11:12;;;;;;;0.30;0.20;;;14.10;1.00;;;;;;4975400;28;20242;-64
2021/09/19 06:13:38;;;;;;;0.30;0.20;;;14.10;1.00;;;;;;4975631;28;20485;-64
2021/09/19 06:16:04;;;;;;;0.30;0.20;;;14.10;1.00;;;;;;4975575;28;20307;-64
2021/09/19 06:18:31;;;;;;;0.30;0.20;;;14.10;1.00;;;;;;4975358;28;20254;-66
2021/09/19 06:20:57;;;;;;;0.30;0.20;;;13.90;1.00;;;;;;4975524;28;20501;-67
2021/09/19 06:23:22;;;;;;;0.40;0.40;;;14.00;1.00;;;;;;4976000;28;20195;-65
2021/09/19 06:25:48;;;;;;;0.30;0.20;;;14.10;1.00;;;;;;4975519;28;20187;-66
2021/09/19 06:28:13;;;;;;;0.30;0.20;;;14.00;1.00;;;;;;4974338;28;20192;-65
2021/09/19 06:30:39;;;;;;;0.90;0.90;;;13.90;1.00;;;;;;4975344;28;20254;-64
2021/09/19 06:33:05;;;;;;;0.30;0.10;;;13.90;1.00;;;;;;4974417;28;20195;-65
2021/09/19 06:35:30;;;;;;;0.30;0.20;;;14.20;1.00;;;;;;4975379;28;20267;-64
2021/09/19 06:37:56;;;;;;;0.30;0.20;;;14.30;1.00;;;;;;4975604;28;20239;-62
2021/09/19 06:40:22;;;;;;;0.50;0.40;;;14.40;99.90;;;;;;4980173;28;20441;-63
2021/09/19 06:42:47;;;;;;;0.40;0.20;;;14.10;99.90;;;;;;4984337;28;20196;-63
2021/09/19 06:45:13;;;;;;;0.30;0.20;;;14.00;99.90;;;;;;4983932;28;20187;-62
2021/09/19 06:47:40;;;;;;;0.30;0.20;;;14.00;1.00;;;;;;4985676;28;20191;-64
2021/09/19 06:50:07;;;;;;;0.30;0.20;;;14.10;1.00;;;;;;4984401;28;20194;-65
2021/09/19 06:52:33;;;;;;;1.05;0.60;;;14.00;1.00;;;;;;4984768;28;20660;-64
2021/09/19 06:54:58;;;;;;;0.30;0.20;;;14.20;99.90;;;;;;4983506;28;20186;-64
2021/09/19 06:57:24;;;;;;;0.40;0.20;;;14.30;99.90;;;;;;4984863;28;20198;-65
2021/09/19 06:59:49;;;;;;;0.40;0.20;;;14.60;99.90;;;;;;4981696;28;20186;-65
2021/09/19 07:02:15;;;;;;;0.40;0.40;;;14.70;99.90;;;;;;4984144;28;20620;-66
2021/09/19 07:04:40;;;;;;;0.30;0.20;;;14.50;99.90;;;;;;4984868;28;20231;-66
2021/09/19 07:07:06;;;;;;;0.40;0.30;;;14.40;99.90;;;;;;4976824;28;20202;-62
2021/09/19 07:09:32;;;;;;;0.40;0.20;;;14.80;99.90;;;;;;4973654;28;20187;-62
2021/09/19 07:11:57;;;;;;;2.23;1.50;;;14.60;1.00;;;;;;4974715;28;20211;-61
2021/09/19 07:14:23;;;;;;;0.40;0.40;;;14.30;99.90;;;;;;4973189;28;20190;-61
2021/09/19 07:16:48;;;;;;;0.30;0.20;;;14.10;99.90;;;;;;4973481;28;20175;-61
2021/09/19 07:19:14;;;;;;;0.30;0.10;;;14.20;99.90;;;;;;4974522;28;20637;-61
2021/09/19 07:21:40;;;;;;;0.53;0.53;;;14.40;99.90;;;;;;4974579;28;20183;-63
2021/09/19 07:24:05;;;;;;;0.30;0.10;;;14.40;99.90;;;;;;4974395;28;20172;-62
2021/09/19 07:26:31;;;;;;;0.40;0.20;;;14.60;99.90;;;;;;4974763;28;20481;-62
2021/09/19 07:28:57;;;;;;;0.40;0.33;;;14.70;1.00;;;;;;4974456;28;20180;-64
2021/09/19 07:31:22;;;;;;;0.40;0.20;;;14.70;1.00;;;;;;4974540;28;20210;-62
2021/09/19 07:33:48;;;;;;;0.40;0.20;;;14.70;34.20;;;;;;4974736;28;20183;-62
2021/09/19 07:36:16;;;;;;;0.40;0.20;;;14.90;1.00;;;;;;4974524;28;20435;-63
2021/09/19 07:38:42;;;;;;;0.40;0.20;;;15.10;1.00;;;;;;4974551;28;20179;-63
2021/09/19 07:41:08;;;;;;;0.70;0.30;;;15.10;99.90;;;;;;4977730;28;20206;-66
2021/09/19 07:43:34;;;;;;;0.40;0.20;;;15.10;1.00;;;;;;4977482;28;20217;-63
2021/09/19 07:45:59;;;;;;;0.40;0.20;;;15.00;1.00;;;;;;4978261;28;20183;-62
2021/09/19 07:48:25;;;;;;;0.60;0.60;;;15.10;99.90;;;;;;4976925;28;20187;-65
2021/09/19 07:50:51;;;;;;;0.40;0.20;;;15.30;99.90;;;;;;4978026;28;20211;-63
2021/09/19 07:53:17;;;;;;;0.40;0.20;;;15.40;86.10;;;;;;4978230;28;20180;-63
2021/09/19 07:55:42;;;;;;;0.40;0.20;;;15.90;1.00;;;;;;4978086;28;20435;-64
2021/09/19 07:58:08;;;;;;;0.40;0.20;;;16.30;54.60;;;;;;4977846;28;20238;-63
2021/09/19 08:00:34;;;;;;;0.40;0.10;;;16.10;99.90;;;;;;4978068;28;20218;-63
2021/09/19 08:02:59;;;;;;;0.40;0.20;;;16.10;99.90;;;;;;4978113;28;20180;-63
2021/09/19 08:05:25;;;;;;;0.40;0.20;;;15.90;99.90;;;;;;4977124;28;20191;-63
2021/09/19 08:07:51;;;;;;;2.53;2.33;;;15.70;1.00;;;;;;4976811;28;20517;-64
2021/09/19 08:10:17;;;;;;;0.40;0.20;;;15.70;1.00;;;;;;4977657;28;20184;-62
2021/09/19 08:12:46;;;;;;;0.40;0.17;;;15.70;99.90;;;;;;4976850;28;20302;-62
2021/09/19 08:15:14;;;;;;;1.13;0.40;;;15.60;99.90;;;;;;4977735;28;20430;-61
2021/09/19 08:17:39;;;;;;;0.50;0.35;;;15.90;1.00;;;;;;4977800;28;20187;-62
2021/09/19 08:20:06;;;;;;;0.50;0.33;;;15.70;1.00;;;;;;4977940;28;20179;-62
2021/09/19 08:22:32;;;;;;;0.50;0.50;;;15.90;99.90;;;;;;4977675;28;20194;-65
2021/09/19 08:25:00;;;;;;;0.40;0.20;;;15.70;99.90;;;;;;4977693;28;20203;-63
2021/09/19 08:27:26;;;;;;;1.85;0.35;;;15.90;1.00;;;;;;4977534;28;20488;-63
2021/09/19 08:29:52;;;;;;;0.40;0.20;;;15.90;44.40;;;;;;4977412;28;20183;-63
2021/09/19 08:32:17;;;;;;;0.50;0.50;;;16.10;47.50;;;;;;4977478;28;20723;-63
2021/09/19 08:34:43;;;;;;;0.40;0.20;;;16.00;1.00;;;;;;4977447;28;20187;-63
2021/09/19 08:37:08;;;;;;;0.40;0.20;;;16.30;1.00;;;;;;4977073;28;20172;-63
2021/09/19 08:39:34;;;;;;;0.40;0.20;;;16.30;99.90;;;;;;4977125;28;20171;-64
2021/09/19 08:42:00;;;;;;;0.40;0.20;;;16.20;1.00;;;;;;4977550;28;20434;-63
2021/09/19 08:44:25;;;;;;;0.90;0.47;;;16.40;1.00;;;;;;4976199;28;20531;-63
2021/09/19 08:46:51;;;;;;;0.40;0.20;;;16.20;1.00;;;;;;4977075;28;20254;-63
2021/09/19 08:49:17;;;;;;;0.90;0.30;;;16.30;99.90;;;;;;4976824;28;20265;-64
2021/09/19 08:51:43;;;;;;;0.40;0.30;;;16.60;99.90;;;;;;4974995;28;20215;-63
2021/09/19 08:54:09;;;;;;;0.50;0.20;;;16.80;1.00;;;;;;4976930;28;20435;-63
2021/09/19 08:56:35;;;;;;;0.40;0.20;;;16.80;1.00;;;;;;4976958;28;20186;-64
2021/09/19 08:59:02;;;;;;;0.40;0.20;;;17.00;96.80;;;;;;4976664;28;20939;-63
2021/09/19 09:01:27;;;;;;;0.40;0.20;;;17.00;1.00;;;;;;4976840;28;20514;-64
2021/09/19 09:04:02;;;;;;;1.37;0.50;;;17.00;1.00;;;;;;4976733;28;20899;-66
2021/09/19 09:06:27;;;;;;;1.23;0.87;;;16.90;1.00;;;;;;4977018;28;20249;-64
2021/09/19 09:08:53;;;;;;;0.50;0.27;;;17.10;1.00;;;;;;4976511;28;20809;-64
2021/09/19 09:11:18;;;;;;;0.60;0.50;;;17.20;99.90;;;;;;4976671;28;20207;-64
2021/09/19 09:13:44;;;;;;;0.40;0.20;;;17.30;99.90;;;;;;4976660;28;20605;-64
2021/09/19 09:16:15;;;;;;;0.50;0.30;;;17.70;96.20;;;;;;4976758;28;20651;-64
2021/09/19 09:18:51;;;;;;;0.40;0.20;;;17.50;22.50;;;;;;4976463;28;20218;-63
2021/09/19 09:21:26;;;;;;;0.40;0.20;;;17.10;99.90;;;;;;4976620;28;20434;-62
2021/09/19 09:24:00;;;;;;;0.40;0.10;;;17.20;99.90;;;;;;4976093;28;20434;-63
2021/09/19 09:26:31;;;;;;;0.50;0.43;;;17.10;99.90;;;;;;4976647;28;20518;-66
2021/09/19 09:29:11;;;;;;;2.13;1.93;;;17.30;99.90;;;;;;4976573;28;20426;-62
2021/09/19 09:31:48;;;;;;;0.60;0.60;;;17.30;94.30;;;;;;4976333;28;20485;-64
2021/09/19 09:34:19;;;;;;;0.40;0.20;;;17.00;1.00;;;;;;4975501;28;20927;-64
2021/09/19 09:36:48;;;;;;;0.50;0.40;;;17.20;1.00;;;;;;4976567;28;20497;-65
2021/09/19 09:39:40;;;;;;;0.50;0.40;;;17.50;99.90;;;;;;4976725;28;20498;-62
2021/09/19 09:42:19;;;;;;;0.70;0.33;;;17.60;89.50;;;;;;4974707;28;20459;-63
2021/09/19 09:44:50;;;;;;;0.40;0.20;;;17.70;1.00;;;;;;4976198;28;20438;-64
2021/09/19 09:47:32;;;;;;;1.17;0.40;;;17.60;43.90;;;;;;4976077;28;20435;-66
2021/09/19 09:50:00;;;;;;;0.40;0.20;;;17.90;10.10;;;;;;4975857;28;20528;-66
2021/09/19 09:52:31;;;;;;;0.60;0.30;;;17.70;1.00;;;;;;4975814;28;20561;-63
2021/09/19 09:55:02;;;;;;;0.50;0.30;;;17.30;1.00;;;;;;4976054;28;20431;-64
2021/09/19 09:57:34;;;;;;;0.70;0.70;;;17.10;1.00;;;;;;4976303;28;20995;-64
2021/09/19 10:00:21;;;;;;;0.50;0.40;;;17.10;1.00;;;;;;4975097;28;20846;-63
2021/09/19 10:02:50;;;;;;;0.40;0.20;;;16.90;99.90;;;;;;4974581;28;20812;-63
2021/09/19 10:05:17;;;;;;;0.70;0.40;;;17.20;1.00;;;;;;4975649;28;20431;-63
2021/09/19 10:07:44;;;;;;;0.60;0.50;;;17.50;9.20;;;;;;4974772;28;20764;-64
2021/09/19 10:10:12;;;;;;;0.80;0.23;;;17.80;1.00;;;;;;4975775;28;20462;-64
2021/09/19 10:12:38;;;;;;;1.00;0.50;;;18.00;1.00;;;;;;4975705;28;20854;-64
2021/09/19 10:15:05;;;;;;;0.80;0.37;;;17.50;1.00;;;;;;4974675;28;20431;-65
2021/09/19 10:17:32;;;;;;;0.40;0.20;;;17.60;1.00;;;;;;4975812;28;20181;-64
2021/09/19 10:19:59;;;;;;;0.80;0.70;;;17.50;1.00;;;;;;4976235;28;20430;-66
2021/09/19 10:22:34;;;;;;;0.40;0.20;;;17.90;1.00;;;;;;4975565;28;20430;-66
2021/09/19 10:25:00;;;;;;;1.27;0.50;;;18.20;1.00;;;;;;4974046;28;20820;-67
2021/09/19 10:27:31;;;;;;;1.40;1.30;;;17.90;1.00;;;;;;4975424;28;20533;-65
2021/09/19 10:29:59;;;;;;;0.40;0.20;;;18.10;1.00;;;;;;4975314;28;20188;-66
2021/09/19 10:32:36;;;;;;;1.00;0.40;;;18.50;1.00;;;;;;4975389;28;20474;-65
2021/09/19 10:35:11;;;;;;;0.60;0.60;;;18.60;1.00;;;;;;4975411;28;20426;-64
2021/09/19 10:37:55;;;;;;;0.40;0.20;;;18.40;1.00;;;;;;4975359;28;20423;-68
2021/09/19 10:40:38;;;;;;;0.40;0.20;;;18.90;1.00;;;;;;4974525;28;20446;-64
2021/09/19 10:43:16;;;;;;;0.40;0.20;;;18.70;1.00;;;;;;4975404;28;20965;-65
2021/09/19 10:45:44;;;;;;;0.50;0.20;;;19.10;1.00;;;;;;4975619;28;20557;-65
2021/09/19 10:48:27;;;;;;;0.50;0.40;;;18.80;1.00;;;;;;4974931;28;20437;-64
2021/09/19 10:51:07;;;;;;;3.07;0.50;;;18.40;1.00;;;;;;4974987;28;20462;-63
2021/09/19 10:53:46;;;;;;;0.40;0.20;;;18.70;1.00;;;;;;4975078;28;20429;-63
2021/09/19 10:56:11;;;;;;;1.90;0.40;;;19.00;1.00;;;;;;4974910;28;20756;-65
2021/09/19 10:58:45;;;;;;;0.40;0.20;;;18.80;1.00;;;;;;4974549;28;20419;-64
2021/09/19 11:01:14;;;;;;;1.57;1.13;;;19.00;1.00;;;;;;4974649;28;20195;-67
2021/09/19 11:03:45;;;;;;;0.50;0.30;;;19.00;1.00;;;;;;4974025;28;20423;-63
2021/09/19 11:06:37;;;;;;;0.50;0.40;;;18.70;1.00;;;;;;4974808;28;20441;-64
2021/09/19 11:09:26;;;;;;;0.40;0.20;;;18.30;1.00;;;;;;4974400;28;20441;-67
2021/09/19 11:12:14;;;;;;;1.17;0.80;;;18.50;1.00;;;;;;4974642;28;20533;-65
2021/09/19 11:15:02;;;;;;;0.40;0.20;;;18.20;1.00;;;;;;4974032;28;20526;-65
2021/09/19 11:17:34;;;;;;;0.40;0.20;;;18.40;1.00;;;;;;4974478;28;20419;-64
2021/09/19 11:20:16;;;;;;;0.87;0.40;;;18.70;1.00;;;;;;4974575;28;20430;-63
2021/09/19 11:22:54;;;;;;;0.50;0.30;;;18.50;1.00;;;;;;4973427;28;20526;-64
2021/09/19 11:25:21;;;;;;;0.90;0.47;;;18.90;1.00;;;;;;4973386;28;20445;-65
2021/09/19 11:27:49;;;;;;;1.57;1.47;;;19.50;1.00;;;;;;4974520;28;20430;-64
2021/09/19 11:30:21;;;;;;;1.87;0.80;;;19.60;1.00;;;;;;4974541;28;20437;-66
2021/09/19 11:32:47;;;;;;;1.87;0.63;;;19.00;1.00;;;;;;4974817;28;20864;-65
2021/09/19 11:35:13;;;;;;;0.70;0.40;;;18.80;1.00;;;;;;4974710;28;20518;-64
2021/09/19 11:37:39;;;;;;;0.40;0.20;;;18.10;1.00;;;;;;4974411;28;20772;-64
2021/09/19 11:40:10;;;;;;;0.40;0.20;;;18.10;1.00;;;;;;4973405;28;20431;-63
2021/09/19 11:42:37;;;;;;;0.50;0.23;;;18.20;1.00;;;;;;4974635;28;20488;-64
2021/09/19 11:45:09;;;;;;;0.40;0.20;;;18.20;1.00;;;;;;4973500;28;20530;-64
2021/09/19 11:47:37;;;;;;;0.97;0.30;;;18.40;8.80;;;;;;4974668;28;20434;-66
2021/09/19 11:50:06;;;;;;;0.50;0.30;;;18.40;1.00;;;;;;4974398;28;20537;-66
2021/09/19 11:52:31;;;;;;;0.40;0.27;;;18.30;1.00;;;;;;4974299;28;20478;-63
2021/09/19 11:54:57;;;;;;;0.90;0.60;;;18.30;1.00;;;;;;4975043;28;20437;-65
2021/09/19 11:57:23;;;;;;;1.13;0.57;;;18.30;1.00;;;;;;4973534;28;20249;-63
2021/09/19 11:59:48;;;;;;;0.40;0.20;;;18.40;1.00;;;;;;4973319;28;20206;-64
2021/09/19 12:02:16;;;;;;;0.70;0.70;;;18.40;1.00;;;;;;4973993;28;20198;-63
2021/09/19 12:04:47;;;;;;;0.40;0.20;;;18.20;1.00;;;;;;4974115;28;20598;-64
2021/09/19 12:07:15;;;;;;;0.40;0.13;;;18.00;1.00;;;;;;4974209;28;20772;-66
2021/09/19 12:09:50;;;;;;;1.30;0.70;;;18.40;1.00;;;;;;4973111;28;20505;-66
2021/09/19 12:12:17;;;;;;;0.60;0.40;;;18.50;1.00;;;;;;4974325;28;20473;-65
2021/09/19 12:14:51;;;;;;;0.60;0.30;;;17.90;1.00;;;;;;4974510;28;20419;-66
2021/09/19 12:17:24;;;;;;;0.80;0.60;;;18.10;1.00;;;;;;4974196;28;20577;-64
2021/09/19 12:19:49;;;;;;;0.40;0.20;;;18.00;1.00;;;;;;4974397;28;20423;-66
2021/09/19 12:22:19;;;;;;;0.40;0.10;;;17.80;1.00;;;;;;4974415;28;20919;-65
2021/09/19 12:24:49;;;;;;;0.50;0.20;;;17.80;1.00;;;;;;4974653;28;20562;-68
2021/09/19 12:27:15;;;;;;;0.87;0.30;;;18.40;1.00;;;;;;4976005;28;20423;-66
2021/09/19 12:29:45;;;;;;;0.40;0.20;;;18.40;1.00;;;;;;4977579;28;20427;-67
2021/09/19 12:32:11;;;;;;;0.40;0.20;;;18.40;1.00;;;;;;4977622;28;20207;-68
2021/09/19 12:34:38;;;;;;;2.97;1.37;;;18.50;1.00;;;;;;4978209;28;20423;-66
2021/09/19 12:37:05;;;;;;;0.40;0.13;;;18.70;1.00;;;;;;4976964;28;20434;-66
2021/09/19 12:39:33;;;;;;;1.47;1.07;;;19.10;1.00;;;;;;4977730;28;20797;-66
2021/09/19 12:42:05;;;;;;;0.40;0.20;;;18.90;1.00;;;;;;4977519;28;20427;-65
2021/09/19 12:44:34;;;;;;;0.40;0.20;;;18.50;1.00;;;;;;4976980;28;20975;-65
2021/09/19 12:47:02;;;;;;;0.60;0.30;;;18.50;1.00;;;;;;4978798;28;20454;-64
2021/09/19 12:49:32;;;;;;;0.80;0.20;;;18.30;1.00;;;;;;4977266;28;20537;-64
2021/09/19 12:52:13;;;;;;;1.00;0.50;;;18.20;1.00;;;;;;4977530;28;20454;-66